Time;durP1;ratioP1;P1;durP2;ratioP2;P2;SDS_P1;SDS_P2;PMS_P1;PMS_P2;Temp;Humidity;BMP_temperature;BMP_pressure;BME280_temperature;BME280_humidity;BME280_pressure;Samples;Min_cycle;Max_cycle;Signal;HPM_P1;HPM_P2
2023/04/04 00:00:07;;;;;;;1.52;0.50;;;19.10;48.60;;;;;;4915939;29;20403;-61
2023/04/04 00:02:33;;;;;;;2.20;0.50;;;19.10;48.60;;;;;;4918059;29;20413;-61
2023/04/04 00:04:59;;;;;;;1.58;0.63;;;19.10;48.60;;;;;;4902179;29;20567;-62
2023/04/04 00:07:25;;;;;;;1.77;0.50;;;19.10;48.60;;;;;;4919709;29;20052;-62
2023/04/04 00:09:50;;;;;;;2.35;0.60;;;19.10;48.50;;;;;;4902493;29;20044;-62
2023/04/04 00:12:16;;;;;;;1.25;0.57;;;19.10;48.50;;;;;;4902003;29;20064;-61
2023/04/04 00:14:42;;;;;;;2.42;0.70;;;19.10;48.50;;;;;;4902682;29;20040;-61
2023/04/04 00:17:07;;;;;;;1.70;0.60;;;19.10;48.50;;;;;;4918369;29;20488;-62
2023/04/04 00:19:33;;;;;;;1.90;0.60;;;19.10;48.40;;;;;;4919339;29;20488;-62
2023/04/04 00:21:58;;;;;;;1.83;0.50;;;19.10;48.40;;;;;;4918853;29;20045;-62
2023/04/04 00:24:24;;;;;;;1.50;0.60;;;19.10;48.40;;;;;;4918760;29;20048;-61
2023/04/04 00:26:50;;;;;;;1.75;0.52;;;19.10;48.40;;;;;;4919756;29;20059;-61
2023/04/04 00:29:16;;;;;;;1.98;0.60;;;19.10;48.40;;;;;;4919166;29;20044;-61
2023/04/04 00:31:42;;;;;;;1.25;0.60;;;19.10;48.40;;;;;;4918979;29;20489;-61
2023/04/04 00:34:07;;;;;;;1.55;0.60;;;19.00;48.40;;;;;;4886408;29;20051;-61
2023/04/04 00:36:33;;;;;;;1.83;0.52;;;19.10;48.40;;;;;;4919614;29;20047;-61
2023/04/04 00:38:58;;;;;;;1.70;0.60;;;19.10;48.40;;;;;;4918217;29;20072;-61
2023/04/04 00:41:24;;;;;;;2.13;0.50;;;19.10;48.50;;;;;;4919146;29;20051;-61
2023/04/04 00:43:50;;;;;;;2.83;0.68;;;19.10;48.40;;;;;;4919122;29;20055;-61
2023/04/04 00:46:17;;;;;;;1.10;0.50;;;19.10;48.40;;;;;;4918254;29;20040;-60
2023/04/04 00:48:43;;;;;;;2.07;0.50;;;19.10;48.40;;;;;;4902225;29;20084;-61
2023/04/04 00:51:08;;;;;;;1.80;0.60;;;19.10;48.40;;;;;;4918875;29;20045;-61
2023/04/04 00:53:34;;;;;;;2.28;1.00;;;19.10;48.40;;;;;;4918244;29;20052;-61
2023/04/04 00:56:00;;;;;;;1.20;0.47;;;19.00;48.30;;;;;;4885913;29;20051;-61
2023/04/04 00:58:26;;;;;;;1.77;0.52;;;19.00;48.30;;;;;;4901947;29;20055;-61
2023/04/04 01:00:51;;;;;;;1.30;0.60;;;19.00;48.30;;;;;;4918298;29;20056;-61
2023/04/04 01:03:18;;;;;;;2.13;0.50;;;19.00;48.30;;;;;;4901710;29;20654;-61
2023/04/04 01:05:43;;;;;;;1.60;0.60;;;19.00;48.20;;;;;;4870931;29;20130;-61
2023/04/04 01:08:09;;;;;;;1.52;0.40;;;19.00;48.20;;;;;;4885116;29;20127;-61
2023/04/04 01:10:35;;;;;;;1.42;0.57;;;19.00;48.20;;;;;;4918990;29;20044;-61
2023/04/04 01:13:01;;;;;;;3.15;0.75;;;19.00;48.30;;;;;;4870042;29;20060;-61
2023/04/04 01:15:26;;;;;;;2.58;1.02;;;19.00;48.10;;;;;;4917413;29;20058;-61
2023/04/04 01:17:52;;;;;;;1.10;0.50;;;19.00;48.10;;;;;;4918734;29;20052;-61
2023/04/04 01:20:21;;;;;;;1.77;0.70;;;19.00;48.00;;;;;;4901459;29;20044;-61
2023/04/04 01:22:48;;;;;;;1.27;0.50;;;19.00;48.00;;;;;;4920598;29;20047;-60
2023/04/04 01:25:13;;;;;;;1.88;0.50;;;19.00;48.00;;;;;;4920261;29;20044;-61
2023/04/04 01:27:39;;;;;;;1.20;0.50;;;19.00;48.10;;;;;;4919857;29;20151;-61
2023/04/04 01:30:06;;;;;;;1.30;0.50;;;19.00;48.10;;;;;;4937279;29;20039;-61
2023/04/04 01:32:34;;;;;;;1.30;0.45;;;19.10;48.10;;;;;;4920643;29;20051;-61
2023/04/04 01:35:09;;;;;;;2.55;0.40;;;19.10;48.10;;;;;;4936496;29;20503;-61
2023/04/04 01:37:38;;;;;;;1.10;0.50;;;19.10;48.10;;;;;;4937435;29;20059;-61
2023/04/04 01:40:08;;;;;;;1.33;0.40;;;19.10;48.30;;;;;;4904306;29;20056;-61
2023/04/04 01:42:33;;;;;;;1.15;0.60;;;19.20;48.10;;;;;;4920002;29;20048;-61
2023/04/04 01:44:59;;;;;;;1.58;0.60;;;19.20;48.10;;;;;;4936923;29;20040;-61
2023/04/04 01:47:25;;;;;;;1.77;0.60;;;19.20;48.10;;;;;;4919728;29;20054;-61
2023/04/04 01:49:52;;;;;;;1.40;0.57;;;19.20;48.10;;;;;;4919233;29;20051;-61
2023/04/04 01:52:18;;;;;;;1.00;0.57;;;19.20;48.00;;;;;;4920361;29;20128;-61
2023/04/04 01:54:44;;;;;;;0.90;0.35;;;19.20;47.90;;;;;;4937501;29;20044;-61
2023/04/04 01:57:09;;;;;;;2.67;0.60;;;19.20;48.00;;;;;;4936745;29;20051;-61
2023/04/04 01:59:35;;;;;;;1.80;0.52;;;19.20;47.90;;;;;;4920515;29;20071;-61
2023/04/04 02:02:00;;;;;;;0.90;0.60;;;19.20;47.90;;;;;;4919957;29;20436;-61
2023/04/04 02:04:26;;;;;;;1.30;0.50;;;19.20;47.90;;;;;;4935447;29;20044;-61
2023/04/04 02:06:52;;;;;;;1.33;0.50;;;19.30;47.90;;;;;;4936802;29;20111;-61
2023/04/04 02:09:17;;;;;;;0.80;0.40;;;19.20;47.80;;;;;;4936542;29;20103;-61
2023/04/04 02:11:43;;;;;;;1.02;0.43;;;19.20;47.80;;;;;;4935765;29;20434;-61
2023/04/04 02:14:08;;;;;;;0.73;0.40;;;19.20;48.50;;;;;;4936432;29;20122;-61
2023/04/04 02:16:34;;;;;;;1.95;0.63;;;19.20;47.80;;;;;;4936008;29;20493;-60
2023/04/04 02:19:00;;;;;;;1.42;0.60;;;19.30;47.90;;;;;;4936599;29;20040;-61
2023/04/04 02:21:26;;;;;;;2.00;0.50;;;19.20;47.70;;;;;;4936029;29;20496;-61
2023/04/04 02:23:52;;;;;;;1.00;0.40;;;19.20;47.70;;;;;;4935623;29;20146;-61
2023/04/04 02:26:17;;;;;;;0.93;0.45;;;19.20;47.70;;;;;;4918220;29;20036;-60
2023/04/04 02:28:43;;;;;;;1.60;0.50;;;19.20;47.60;;;;;;4936398;29;20080;-61
2023/04/04 02:31:09;;;;;;;1.63;0.52;;;19.20;47.60;;;;;;4935572;29;20040;-61
2023/04/04 02:33:35;;;;;;;1.17;0.40;;;19.30;47.70;;;;;;4936274;29;20047;-61
2023/04/04 02:36:01;;;;;;;0.82;0.50;;;19.20;47.60;;;;;;4936290;29;20408;-61
2023/04/04 02:38:27;;;;;;;2.53;0.70;;;19.20;47.60;;;;;;4935420;29;20074;-61
2023/04/04 02:40:53;;;;;;;1.85;0.50;;;19.20;47.60;;;;;;4936333;29;20113;-61
2023/04/04 02:43:18;;;;;;;1.50;0.55;;;19.30;47.70;;;;;;4935860;29;20052;-61
2023/04/04 02:45:44;;;;;;;1.40;0.45;;;19.30;47.80;;;;;;4918303;29;20055;-61
2023/04/04 02:48:09;;;;;;;1.25;0.45;;;19.30;47.70;;;;;;4918673;29;20508;-60
2023/04/04 02:50:35;;;;;;;2.08;0.50;;;19.30;47.70;;;;;;4919287;29;20052;-61
2023/04/04 02:53:04;;;;;;;1.67;0.55;;;19.30;47.80;;;;;;4935298;29;20043;-60
2023/04/04 02:55:30;;;;;;;0.95;0.50;;;19.30;47.70;;;;;;4935937;29;20051;-61
2023/04/04 02:57:56;;;;;;;2.17;0.50;;;19.30;47.70;;;;;;4935992;29;20048;-61
2023/04/04 03:00:22;;;;;;;3.05;0.65;;;19.30;47.70;;;;;;4917702;29;20453;-61
2023/04/04 03:02:54;;;;;;;1.23;0.40;;;19.30;47.70;;;;;;4935988;29;20046;-61
2023/04/04 03:05:20;;;;;;;1.55;0.50;;;19.30;47.70;;;;;;4935408;29;20072;-60
2023/04/04 03:07:46;;;;;;;0.82;0.45;;;19.40;47.80;;;;;;4935159;29;20071;-61
2023/04/04 03:10:12;;;;;;;1.08;0.50;;;19.40;47.70;;;;;;4935648;29;20131;-61
2023/04/04 03:12:37;;;;;;;1.73;0.52;;;19.40;47.70;;;;;;4934463;29;20184;-61
2023/04/04 03:15:04;;;;;;;1.45;0.40;;;19.40;47.80;;;;;;4934815;29;20083;-60
2023/04/04 03:17:30;;;;;;;1.15;0.45;;;19.40;47.70;;;;;;4918330;29;20047;-61
2023/04/04 03:19:55;;;;;;;1.15;0.40;;;19.40;47.70;;;;;;4918102;29;20044;-61
2023/04/04 03:22:21;;;;;;;1.15;0.40;;;19.40;47.70;;;;;;4918249;29;20048;-61
2023/04/04 03:24:47;;;;;;;1.00;0.50;;;19.40;47.60;;;;;;4935740;29;20047;-61
2023/04/04 03:27:12;;;;;;;0.73;0.50;;;19.50;47.70;;;;;;4934764;29;20054;-61
2023/04/04 03:29:38;;;;;;;0.88;0.40;;;19.50;47.80;;;;;;4918156;29;20090;-61
2023/04/04 03:32:04;;;;;;;0.60;0.40;;;19.50;48.50;;;;;;4935107;29;20051;-61
2023/04/04 03:34:30;;;;;;;1.83;0.50;;;19.50;47.70;;;;;;4934846;29;20373;-60
2023/04/04 03:36:56;;;;;;;1.00;0.50;;;19.50;47.70;;;;;;4936648;29;20047;-60
2023/04/04 03:39:26;;;;;;;1.70;0.45;;;19.50;47.70;;;;;;4921865;29;20147;-61
2023/04/04 03:41:52;;;;;;;1.67;0.60;;;19.60;47.80;;;;;;4922083;29;20051;-61
2023/04/04 03:44:17;;;;;;;1.63;0.40;;;19.60;47.80;;;;;;4938987;29;20032;-61
2023/04/04 03:46:43;;;;;;;1.30;0.50;;;19.60;47.80;;;;;;4922456;29;20479;-61
2023/04/04 03:49:08;;;;;;;0.90;0.40;;;19.60;47.70;;;;;;4938241;29;20388;-61
2023/04/04 03:51:34;;;;;;;1.63;0.40;;;19.60;47.70;;;;;;4939323;29;20048;-61
2023/04/04 03:53:59;;;;;;;1.20;0.40;;;19.60;47.80;;;;;;4939315;29;20047;-60
2023/04/04 03:56:25;;;;;;;0.75;0.50;;;19.60;47.70;;;;;;4938091;29;20047;-60
2023/04/04 03:58:50;;;;;;;1.58;0.50;;;19.60;47.70;;;;;;4906156;29;20420;-60
2023/04/04 04:01:16;;;;;;;0.98;0.40;;;19.60;47.70;;;;;;4915481;29;20055;-61
2023/04/04 04:03:42;;;;;;;1.42;0.70;;;19.70;47.70;;;;;;4931932;29;20396;-60
2023/04/04 04:06:07;;;;;;;1.15;0.40;;;19.70;47.70;;;;;;4921079;29;20054;-61
2023/04/04 04:08:33;;;;;;;1.02;0.45;;;19.70;47.70;;;;;;4921609;29;20411;-61
2023/04/04 04:11:04;;;;;;;1.13;0.43;;;19.70;47.60;;;;;;4921061;29;20130;-61
2023/04/04 04:13:29;;;;;;;2.33;0.40;;;19.70;47.70;;;;;;4938567;29;20056;-61
2023/04/04 04:15:56;;;;;;;1.73;0.60;;;19.70;47.70;;;;;;4921877;29;20055;-61
2023/04/04 04:18:21;;;;;;;0.70;0.38;;;19.70;47.60;;;;;;4937762;29;20126;-61
2023/04/04 04:20:47;;;;;;;1.77;0.50;;;19.70;47.70;;;;;;4938290;29;20135;-61
2023/04/04 04:23:12;;;;;;;1.73;0.40;;;19.70;47.60;;;;;;4920474;29;20043;-61
2023/04/04 04:25:38;;;;;;;0.60;0.32;;;19.80;47.60;;;;;;4921438;29;20075;-61
2023/04/04 04:28:03;;;;;;;1.58;0.47;;;19.70;47.60;;;;;;4938024;29;20106;-61
2023/04/04 04:30:29;;;;;;;1.02;0.43;;;19.80;47.60;;;;;;4921049;29;20141;-61
2023/04/04 04:32:55;;;;;;;1.35;0.40;;;19.80;47.60;;;;;;4921414;29;20091;-61
2023/04/04 04:35:20;;;;;;;0.90;0.43;;;19.80;47.60;;;;;;4938053;29;20051;-60
2023/04/04 04:37:46;;;;;;;1.08;0.50;;;19.80;47.60;;;;;;4937798;29;20615;-61
2023/04/04 04:40:13;;;;;;;1.20;0.50;;;19.80;47.60;;;;;;4937719;29;20399;-61
2023/04/04 04:42:45;;;;;;;1.10;0.52;;;19.80;47.60;;;;;;4938220;29;20059;-61
2023/04/04 04:45:11;;;;;;;1.95;0.40;;;19.80;47.60;;;;;;4937393;29;20122;-61
2023/04/04 04:47:36;;;;;;;1.55;0.50;;;19.80;47.50;;;;;;4937923;29;20238;-60
2023/04/04 04:50:03;;;;;;;1.90;0.90;;;19.80;47.50;;;;;;4920458;29;20047;-60
2023/04/04 04:52:31;;;;;;;0.82;0.35;;;19.80;47.50;;;;;;4937382;29;20131;-61
2023/04/04 04:54:57;;;;;;;0.90;0.40;;;19.80;47.50;;;;;;4920940;29;20213;-60
2023/04/04 04:57:22;;;;;;;1.42;0.40;;;19.90;47.50;;;;;;4920853;29;20052;-61
2023/04/04 04:59:48;;;;;;;1.15;0.40;;;19.90;47.50;;;;;;4920217;29;20060;-60
2023/04/04 05:02:14;;;;;;;0.90;0.50;;;19.90;47.60;;;;;;4937820;29;20079;-61
2023/04/04 05:04:43;;;;;;;1.15;0.57;;;19.90;47.60;;;;;;4920941;29;20127;-61
2023/04/04 05:07:11;;;;;;;0.85;0.40;;;19.90;47.50;;;;;;4936920;29;20548;-61
2023/04/04 05:09:36;;;;;;;0.80;0.43;;;19.90;48.20;;;;;;4937916;29;20086;-61
2023/04/04 05:12:02;;;;;;;1.20;0.50;;;19.90;47.50;;;;;;4920352;29;20082;-61
2023/04/04 05:14:28;;;;;;;1.05;0.40;;;19.90;47.40;;;;;;4937300;29;20122;-61
2023/04/04 05:16:53;;;;;;;1.08;0.40;;;19.90;47.50;;;;;;4920766;29;20082;-61
2023/04/04 05:19:19;;;;;;;0.95;0.45;;;20.00;47.50;;;;;;4937316;29;20055;-61
2023/04/04 05:21:44;;;;;;;2.78;0.60;;;20.00;47.50;;;;;;4937077;29;20135;-60
2023/04/04 05:24:10;;;;;;;0.98;0.40;;;19.90;47.40;;;;;;4920205;29;20055;-60
2023/04/04 05:26:36;;;;;;;0.98;0.47;;;20.00;47.40;;;;;;4937003;29;20047;-60
2023/04/04 05:29:01;;;;;;;0.75;0.50;;;20.00;47.40;;;;;;4937714;29;20063;-61
2023/04/04 05:31:27;;;;;;;1.55;0.50;;;20.00;47.50;;;;;;4919871;29;20044;-60
2023/04/04 05:33:52;;;;;;;1.88;0.60;;;20.00;47.50;;;;;;4936829;29;20044;-60
2023/04/04 05:36:18;;;;;;;1.48;0.60;;;20.00;47.40;;;;;;4937135;29;20047;-60
2023/04/04 05:38:44;;;;;;;0.88;0.50;;;20.00;47.40;;;;;;4937598;29;20035;-60
2023/04/04 05:41:10;;;;;;;1.27;0.40;;;20.00;47.40;;;;;;4936261;29;20048;-61
2023/04/04 05:43:35;;;;;;;0.80;0.40;;;20.00;47.40;;;;;;4937220;29;20036;-60
2023/04/04 05:46:01;;;;;;;1.48;0.40;;;20.00;47.40;;;;;;4920138;29;20095;-61
2023/04/04 05:48:26;;;;;;;0.77;0.43;;;20.10;47.40;;;;;;4936382;29;20480;-61
2023/04/04 05:50:52;;;;;;;1.77;0.50;;;20.00;47.40;;;;;;4937377;29;20123;-61
2023/04/04 05:53:18;;;;;;;0.82;0.40;;;20.10;47.40;;;;;;4919771;29;20050;-61
2023/04/04 05:55:43;;;;;;;1.55;0.60;;;20.10;47.40;;;;;;4919199;29;20142;-61
2023/04/04 05:58:09;;;;;;;1.75;0.50;;;20.10;47.40;;;;;;4925658;29;20449;-61
2023/04/04 06:00:34;;;;;;;0.73;0.30;;;20.10;47.40;;;;;;4917821;29;20400;-60
2023/04/04 06:03:00;;;;;;;1.95;0.65;;;20.10;47.40;;;;;;4917418;29;20374;-61
2023/04/04 06:05:25;;;;;;;1.73;0.70;;;20.10;47.40;;;;;;4917648;29;20051;-61
2023/04/04 06:07:51;;;;;;;0.98;0.50;;;20.10;47.40;;;;;;4918031;29;20047;-61
2023/04/04 06:10:16;;;;;;;1.95;0.43;;;20.10;47.40;;;;;;4916370;29;20522;-60
2023/04/04 06:12:42;;;;;;;1.45;0.50;;;20.10;47.40;;;;;;4917464;29;20089;-60
2023/04/04 06:15:08;;;;;;;2.30;0.70;;;20.20;47.20;;;;;;4917443;29;20044;-60
2023/04/04 06:17:33;;;;;;;4.32;0.50;;;20.20;47.10;;;;;;4916846;29;20079;-61
2023/04/04 06:19:59;;;;;;;3.42;0.40;;;20.20;47.20;;;;;;4917813;29;20397;-61
2023/04/04 06:22:25;;;;;;;1.15;0.50;;;20.20;47.30;;;;;;4900196;29;20122;-60
2023/04/04 06:24:50;;;;;;;3.22;0.60;;;20.20;47.30;;;;;;4916771;29;20183;-60
2023/04/04 06:27:16;;;;;;;4.68;0.90;;;20.20;47.40;;;;;;4917397;29;20047;-61
2023/04/04 06:29:42;;;;;;;2.20;0.50;;;20.20;47.40;;;;;;4899635;29;20040;-60
2023/04/04 06:32:08;;;;;;;1.98;0.50;;;20.20;47.50;;;;;;4917206;29;20052;-61
2023/04/04 06:34:34;;;;;;;1.30;0.38;;;20.20;47.70;;;;;;4917438;29;20054;-60
2023/04/04 06:36:59;;;;;;;6.70;0.50;;;20.20;47.70;;;;;;4899439;29;20048;-60
2023/04/04 06:39:26;;;;;;;5.32;0.65;;;20.20;47.70;;;;;;4918641;29;20059;-60
2023/04/04 06:41:51;;;;;;;3.13;0.60;;;20.20;47.80;;;;;;4936074;29;20411;-60
2023/04/04 06:44:17;;;;;;;2.03;0.68;;;20.20;47.90;;;;;;4935075;29;20476;-60
2023/04/04 06:46:43;;;;;;;1.80;0.50;;;20.20;48.00;;;;;;4936097;29;20047;-60
2023/04/04 06:49:09;;;;;;;1.77;0.50;;;20.20;48.20;;;;;;4903061;29;20048;-60
2023/04/04 06:51:34;;;;;;;4.25;0.90;;;20.30;48.40;;;;;;4935209;29;20444;-60
2023/04/04 06:54:00;;;;;;;2.30;0.60;;;20.30;48.50;;;;;;4888011;29;20048;-60
2023/04/04 06:56:26;;;;;;;2.20;0.40;;;20.30;48.70;;;;;;4900187;29;20119;-61
2023/04/04 06:58:51;;;;;;;5.63;0.60;;;20.30;48.70;;;;;;4899338;29;20512;-60
2023/04/04 07:01:17;;;;;;;2.42;0.40;;;20.30;48.80;;;;;;4916703;29;20048;-60
2023/04/04 07:03:45;;;;;;;2.35;0.70;;;20.30;48.80;;;;;;4916945;29;20100;-61
2023/04/04 07:06:11;;;;;;;;;;;20.30;48.80;;;;;;4915968;29;20100;-60
2023/04/04 07:08:36;;;;;;;2.92;0.57;;;20.30;48.80;;;;;;4916912;29;19929;-59
2023/04/04 07:11:06;;;;;;;4.00;0.65;;;20.30;48.80;;;;;;4916656;29;20051;-61
2023/04/04 07:13:32;;;;;;;1.42;0.40;;;20.30;48.80;;;;;;4898767;29;20067;-61
2023/04/04 07:15:57;;;;;;;3.17;0.75;;;20.30;48.70;;;;;;4916932;29;20048;-61
2023/04/04 07:18:23;;;;;;;1.55;0.60;;;20.40;48.70;;;;;;4916444;29;20051;-61
2023/04/04 07:20:49;;;;;;;3.13;0.60;;;20.40;48.80;;;;;;4916010;29;20044;-61
2023/04/04 07:23:14;;;;;;;1.83;0.52;;;20.40;48.80;;;;;;4899177;29;20136;-61
2023/04/04 07:25:40;;;;;;;2.28;0.80;;;20.40;48.80;;;;;;4899553;29;20044;-60
2023/04/04 07:28:06;;;;;;;2.47;0.50;;;20.40;48.70;;;;;;4898700;29;20048;-60
2023/04/04 07:30:32;;;;;;;3.05;0.50;;;20.40;48.70;;;;;;4916578;29;20484;-61
2023/04/04 07:33:01;;;;;;;3.78;0.70;;;20.40;48.60;;;;;;4899402;29;20472;-61
2023/04/04 07:35:27;;;;;;;2.70;0.75;;;20.40;48.40;;;;;;4899400;29;20052;-61
2023/04/04 07:37:52;;;;;;;2.65;0.60;;;20.40;48.30;;;;;;4916545;29;20048;-60
2023/04/04 07:40:18;;;;;;;2.20;0.52;;;20.40;48.20;;;;;;4915497;29;20051;-64
2023/04/04 07:42:48;;;;;;;4.88;0.70;;;20.40;48.20;;;;;;4931614;29;20074;-61
2023/04/04 07:45:14;;;;;;;2.72;0.60;;;20.40;48.20;;;;;;4916341;29;20051;-61
2023/04/04 07:47:43;;;;;;;2.05;0.60;;;20.50;48.20;;;;;;4930153;29;20107;-61
2023/04/04 07:50:09;;;;;;;3.22;0.60;;;20.50;48.20;;;;;;4934531;29;20483;-60
2023/04/04 07:52:35;;;;;;;2.00;0.50;;;20.50;48.30;;;;;;4934446;29;20039;-60
2023/04/04 07:55:02;;;;;;;5.28;0.90;;;20.50;48.40;;;;;;4933309;29;20027;-60
2023/04/04 07:57:28;;;;;;;4.00;0.55;;;20.50;48.30;;;;;;4917627;29;20043;-60
2023/04/04 07:59:53;;;;;;;3.65;0.75;;;20.50;48.30;;;;;;4933497;29;20114;-60
2023/04/04 08:02:19;;;;;;;1.63;0.55;;;20.50;48.20;;;;;;4933798;29;20543;-60
2023/04/04 08:04:45;;;;;;;5.35;0.88;;;20.50;48.30;;;;;;4933236;29;20064;-60
2023/04/04 08:07:10;;;;;;;3.50;0.63;;;20.50;48.30;;;;;;4934702;29;20499;-60
2023/04/04 08:09:36;;;;;;;3.40;0.80;;;20.50;48.30;;;;;;4932690;29;20098;-60
2023/04/04 08:12:02;;;;;;;3.10;0.60;;;20.50;48.30;;;;;;4917441;29;20488;-60
2023/04/04 08:14:28;;;;;;;2.75;0.50;;;20.50;48.30;;;;;;4934029;29;20040;-61
2023/04/04 08:16:53;;;;;;;2.95;0.63;;;20.50;48.30;;;;;;4934013;29;20372;-60
2023/04/04 08:19:19;;;;;;;2.08;0.57;;;20.60;48.40;;;;;;4933929;29;20036;-60
2023/04/04 08:21:45;;;;;;;4.25;0.75;;;20.60;48.30;;;;;;4917409;29;20071;-61
2023/04/04 08:24:11;;;;;;;3.47;0.60;;;20.60;48.30;;;;;;4936372;29;20068;-60
2023/04/04 08:26:36;;;;;;;3.10;0.60;;;20.60;48.30;;;;;;4938349;29;20068;-60
2023/04/04 08:29:02;;;;;;;3.42;0.80;;;20.60;48.30;;;;;;4938042;29;20039;-60
2023/04/04 08:31:28;;;;;;;2.60;0.60;;;20.60;48.20;;;;;;4937179;29;20040;-60
2023/04/04 08:33:54;;;;;;;3.65;0.68;;;20.60;48.20;;;;;;4920913;29;20130;-60
2023/04/04 08:36:20;;;;;;;1.08;0.50;;;20.60;48.20;;;;;;4937298;29;20036;-60
2023/04/04 08:38:45;;;;;;;3.45;0.70;;;20.60;48.10;;;;;;4935711;29;20511;-60
2023/04/04 08:41:11;;;;;;;1.80;0.60;;;20.60;48.10;;;;;;4937858;29;20043;-61
2023/04/04 08:43:39;;;;;;;1.63;0.68;;;20.60;48.10;;;;;;4935595;29;20058;-60
2023/04/04 08:46:05;;;;;;;4.18;0.80;;;20.70;48.10;;;;;;4937739;29;20075;-61
2023/04/04 08:48:31;;;;;;;2.05;0.50;;;20.70;48.00;;;;;;4916994;29;20120;-60
2023/04/04 08:50:58;;;;;;;3.10;0.70;;;20.70;48.00;;;;;;4937184;29;20040;-60
2023/04/04 08:53:24;;;;;;;2.00;0.65;;;20.70;47.90;;;;;;4921112;29;20047;-60
2023/04/04 08:55:50;;;;;;;1.63;0.50;;;20.70;47.90;;;;;;4938377;29;20383;-60
2023/04/04 08:58:16;;;;;;;1.40;0.55;;;20.70;48.50;;;;;;4936852;29;20043;-60
2023/04/04 09:00:42;;;;;;;1.50;0.50;;;20.70;47.80;;;;;;4938067;29;20067;-61
2023/04/04 09:03:16;;;;;;;1.65;0.50;;;20.70;47.70;;;;;;4937445;29;20043;-61
2023/04/04 09:05:43;;;;;;;2.13;0.50;;;20.70;47.60;;;;;;4920368;29;20506;-61
2023/04/04 09:08:08;;;;;;;3.08;0.57;;;20.70;47.60;;;;;;4904596;29;20067;-60
2023/04/04 09:10:34;;;;;;;2.13;0.52;;;20.70;47.60;;;;;;4921125;29;20111;-61
2023/04/04 09:13:00;;;;;;;4.53;0.75;;;20.70;47.60;;;;;;4936927;29;20063;-60
2023/04/04 09:15:26;;;;;;;1.40;0.60;;;20.70;47.60;;;;;;4937108;29;20131;-60
2023/04/04 09:17:51;;;;;;;1.30;0.47;;;20.70;47.70;;;;;;4937746;29;20072;-60
2023/04/04 09:20:32;;;;;;;2.08;0.50;;;20.70;47.70;;;;;;4936361;29;20040;-61
2023/04/04 09:22:58;;;;;;;3.20;0.55;;;20.70;47.70;;;;;;4937602;29;20500;-60
2023/04/04 09:25:23;;;;;;;2.75;0.50;;;20.70;47.70;;;;;;4937025;29;20079;-61
2023/04/04 09:27:49;;;;;;;1.73;0.47;;;20.70;47.70;;;;;;4936982;29;20495;-60
2023/04/04 09:30:15;;;;;;;3.35;0.50;;;20.70;47.70;;;;;;4919722;29;20348;-60
2023/04/04 09:32:41;;;;;;;2.05;0.40;;;20.70;47.70;;;;;;4936833;29;20043;-61
2023/04/04 09:35:07;;;;;;;1.52;0.50;;;20.60;47.70;;;;;;4903696;29;20054;-61
2023/04/04 09:37:33;;;;;;;2.13;0.50;;;20.60;47.70;;;;;;4920619;29;20044;-61
2023/04/04 09:39:58;;;;;;;1.42;0.47;;;20.60;47.70;;;;;;4919234;29;20123;-61
2023/04/04 09:42:25;;;;;;;1.83;0.63;;;20.60;47.80;;;;;;4937070;29;20090;-61
2023/04/04 09:44:54;;;;;;;1.35;0.40;;;20.60;47.80;;;;;;4919993;29;20094;-62
2023/04/04 09:47:26;;;;;;;4.25;0.75;;;20.60;47.90;;;;;;4903399;29;20074;-61
2023/04/04 09:49:52;;;;;;;2.67;0.50;;;20.60;47.80;;;;;;4919740;29;20064;-61
2023/04/04 09:52:21;;;;;;;2.60;0.50;;;20.60;47.90;;;;;;4936623;29;20051;-61
2023/04/04 09:54:57;;;;;;;2.38;0.60;;;20.60;47.80;;;;;;4936262;29;20043;-61
2023/04/04 09:57:33;;;;;;;2.00;0.60;;;20.60;47.80;;;;;;4936757;29;20102;-62
2023/04/04 09:59:59;;;;;;;1.67;0.50;;;20.50;47.80;;;;;;4921140;29;20048;-61
2023/04/04 10:02:26;;;;;;;0.77;0.43;;;20.50;47.80;;;;;;4935841;29;20063;-61
2023/04/04 10:04:56;;;;;;;2.03;0.40;;;20.50;47.50;;;;;;4936585;29;20055;-64
2023/04/04 10:07:31;;;;;;;4.13;1.13;;;20.50;47.10;;;;;;4934674;29;20044;-62
2023/04/04 10:09:59;;;;;;;3.85;0.55;;;20.50;47.00;;;;;;4903183;29;20048;-62
2023/04/04 10:12:25;;;;;;;4.78;0.90;;;20.50;47.00;;;;;;4918407;29;20074;-62
2023/04/04 10:15:00;;;;;;;4.75;0.93;;;20.40;46.90;;;;;;4933176;29;20387;-62
2023/04/04 10:17:39;;;;;;;3.58;0.60;;;20.40;47.10;;;;;;4936183;29;20067;-62
2023/04/04 10:20:05;;;;;;;3.15;0.40;;;20.40;47.20;;;;;;4936059;29;20119;-62
2023/04/04 10:22:35;;;;;;;3.10;0.75;;;20.40;47.20;;;;;;4924761;29;20399;-61
2023/04/04 10:25:02;;;;;;;3.35;0.60;;;20.40;47.30;;;;;;4916670;29;20052;-61
2023/04/04 10:27:27;;;;;;;5.93;0.80;;;20.40;47.40;;;;;;4917688;29;20087;-62
2023/04/04 10:29:53;;;;;;;3.53;0.70;;;20.40;47.40;;;;;;4916901;29;20235;-61
2023/04/04 10:32:24;;;;;;;3.88;0.70;;;20.40;47.50;;;;;;4917274;29;20040;-61
2023/04/04 10:35:04;;;;;;;3.45;0.70;;;20.40;47.60;;;;;;4885294;29;20052;-61
2023/04/04 10:37:44;;;;;;;2.50;0.75;;;20.40;47.70;;;;;;4901069;29;20107;-61
2023/04/04 10:40:15;;;;;;;2.55;0.70;;;20.40;47.80;;;;;;4900256;29;20079;-62
2023/04/04 10:42:44;;;;;;;3.55;0.80;;;20.40;48.60;;;;;;4917585;29;20065;-62
2023/04/04 10:45:12;;;;;;;4.65;0.65;;;20.40;47.90;;;;;;4916161;29;20044;-62
2023/04/04 10:47:38;;;;;;;3.78;0.75;;;20.40;48.00;;;;;;4884076;29;20459;-63
2023/04/04 10:50:09;;;;;;;4.80;0.80;;;20.40;47.90;;;;;;4915965;29;20076;-62
2023/04/04 10:52:41;;;;;;;6.28;1.00;;;20.40;47.80;;;;;;4917305;29;20063;-63
2023/04/04 10:55:08;;;;;;;7.30;1.17;;;20.40;47.50;;;;;;4901324;29;20484;-63
2023/04/04 10:57:37;;;;;;;9.50;0.98;;;20.40;47.30;;;;;;4916161;29;20492;-64
2023/04/04 11:00:19;;;;;;;7.82;0.80;;;20.40;47.30;;;;;;4902830;29;20087;-64
2023/04/04 11:02:51;;;;;;;1.95;0.55;;;20.40;47.40;;;;;;4903301;29;20052;-63
2023/04/04 11:05:39;;;;;;;4.95;0.68;;;20.40;47.50;;;;;;4916038;29;20078;-63
2023/04/04 11:08:09;;;;;;;3.75;0.73;;;20.40;47.70;;;;;;4916562;29;20187;-62
2023/04/04 11:10:36;;;;;;;5.13;1.02;;;20.40;47.80;;;;;;4906555;29;20058;-63
2023/04/04 11:13:09;;;;;;;5.07;0.70;;;20.50;47.90;;;;;;4928596;29;20496;-62
2023/04/04 11:15:56;;;;;;;12.85;0.95;;;20.50;48.00;;;;;;4927028;29;20644;-62
2023/04/04 11:18:31;;;;;;;4.47;1.00;;;20.50;48.20;;;;;;4905345;29;20425;-62
2023/04/04 11:21:00;;;;;;;3.33;0.80;;;20.50;48.00;;;;;;4917030;29;20043;-62
2023/04/04 11:23:26;;;;;;;4.82;0.82;;;20.50;47.80;;;;;;4899210;29;20075;-62
2023/04/04 11:25:55;;;;;;;3.92;0.80;;;20.50;47.60;;;;;;4915900;29;20036;-62
2023/04/04 11:28:33;;;;;;;2.42;0.63;;;20.50;47.60;;;;;;4899010;29;20044;-61
2023/04/04 11:31:17;;;;;;;2.42;0.80;;;20.50;47.50;;;;;;4916704;29;20072;-64
2023/04/04 11:33:55;;;;;;;4.55;0.60;;;20.50;47.70;;;;;;4934627;29;20106;-64
2023/04/04 11:36:36;;;;;;;6.40;0.88;;;20.50;47.70;;;;;;4915261;29;20047;-64
2023/04/04 11:39:10;;;;;;;6.63;0.90;;;20.50;47.70;;;;;;4916481;29;20044;-63
2023/04/04 11:41:54;;;;;;;6.20;0.90;;;20.50;47.60;;;;;;4916475;29;20060;-63
2023/04/04 11:44:21;;;;;;;4.35;0.65;;;20.50;47.70;;;;;;4899394;29;20070;-64
2023/04/04 11:46:47;;;;;;;5.93;0.68;;;20.50;47.70;;;;;;4915745;29;20059;-64
2023/04/04 11:49:13;;;;;;;2.30;0.60;;;20.60;47.70;;;;;;4898933;29;20040;-64
2023/04/04 11:51:39;;;;;;;5.22;0.57;;;20.60;47.80;;;;;;4916300;29;20131;-64
2023/04/04 11:54:14;;;;;;;2.85;0.60;;;20.50;47.60;;;;;;4898282;29;20111;-64
2023/04/04 11:56:41;;;;;;;6.68;0.82;;;20.60;47.80;;;;;;4916608;29;20044;-64
2023/04/04 11:59:06;;;;;;;2.20;0.50;;;20.60;47.70;;;;;;4902233;29;20063;-64
2023/04/04 12:01:32;;;;;;;3.08;0.47;;;20.60;47.70;;;;;;4902488;29;20044;-64
2023/04/04 12:03:59;;;;;;;2.10;0.70;;;20.60;47.60;;;;;;4887271;29;20038;-63
2023/04/04 12:06:26;;;;;;;4.53;0.60;;;20.60;47.60;;;;;;4903120;29;20048;-64
2023/04/04 12:08:51;;;;;;;3.80;0.63;;;20.60;47.60;;;;;;4913851;29;20399;-65
2023/04/04 12:11:19;;;;;;;4.35;0.60;;;20.60;47.50;;;;;;4920807;29;20035;-64
2023/04/04 12:13:45;;;;;;;5.30;0.63;;;20.60;47.40;;;;;;4937964;29;20460;-63
2023/04/04 12:16:10;;;;;;;1.15;0.40;;;20.60;47.40;;;;;;4920371;29;20063;-64
2023/04/04 12:18:36;;;;;;;3.05;0.50;;;20.60;47.40;;;;;;4937195;29;20134;-64
2023/04/04 12:21:02;;;;;;;4.50;0.50;;;20.60;47.40;;;;;;4938493;29;20514;-64
2023/04/04 12:23:35;;;;;;;3.95;0.77;;;20.60;48.10;;;;;;4937894;29;20083;-64
2023/04/04 12:26:02;;;;;;;1.52;0.47;;;20.60;47.30;;;;;;4937166;29;20475;-64
2023/04/04 12:28:29;;;;;;;2.25;0.40;;;20.60;47.30;;;;;;4918534;29;20071;-64
2023/04/04 12:30:55;;;;;;;3.28;0.52;;;20.60;47.30;;;;;;4938478;29;20090;-64
2023/04/04 12:33:21;;;;;;;2.53;0.40;;;20.60;47.30;;;;;;4920725;29;20083;-64
2023/04/04 12:35:53;;;;;;;2.67;0.70;;;20.70;47.30;;;;;;4902056;29;20075;-64
2023/04/04 12:38:19;;;;;;;4.47;0.60;;;20.60;47.20;;;;;;4921055;29;20052;-64
2023/04/04 12:40:44;;;;;;;2.47;0.60;;;20.70;48.00;;;;;;4938007;29;20043;-63
2023/04/04 12:43:15;;;;;;;2.47;0.52;;;20.70;47.30;;;;;;4936933;29;20079;-63
2023/04/04 12:45:41;;;;;;;2.75;0.57;;;20.70;47.30;;;;;;4938049;29;20039;-65